sensor_id;sensor_type;location;lat;lon;timestamp;P1;durP1;ratioP1;P2;durP2;ratioP2
6983;SDS011;3532;51.118;7.210;2023-05-29T00:01:51;7.10;;;4.67;;
6983;SDS011;3532;51.118;7.210;2023-05-29T00:04:17;6.00;;;3.93;;
6983;SDS011;3532;51.118;7.210;2023-05-29T00:06:42;6.97;;;4.70;;
6983;SDS011;3532;51.118;7.210;2023-05-29T00:09:07;8.90;;;4.87;;
6983;SDS011;3532;51.118;7.210;2023-05-29T00:11:33;5.03;;;4.30;;
6983;SDS011;3532;51.118;7.210;2023-05-29T00:13:58;11.20;;;4.70;;
6983;SDS011;3532;51.118;7.210;2023-05-29T00:16:32;6.10;;;3.80;;
6983;SDS011;3532;51.118;7.210;2023-05-29T00:18:59;11.73;;;4.40;;
6983;SDS011;3532;51.118;7.210;2023-05-29T00:21:24;7.93;;;4.37;;
6983;SDS011;3532;51.118;7.210;2023-05-29T00:23:50;7.97;;;4.17;;
6983;SDS011;3532;51.118;7.210;2023-05-29T00:26:15;6.53;;;4.27;;
6983;SDS011;3532;51.118;7.210;2023-05-29T00:28:41;7.80;;;4.90;;
6983;SDS011;3532;51.118;7.210;2023-05-29T00:31:07;5.17;;;4.07;;
6983;SDS011;3532;51.118;7.210;2023-05-29T00:33:32;6.60;;;4.63;;
6983;SDS011;3532;51.118;7.210;2023-05-29T00:35:58;6.30;;;4.23;;
6983;SDS011;3532;51.118;7.210;2023-05-29T00:38:23;5.87;;;4.50;;
6983;SDS011;3532;51.118;7.210;2023-05-29T00:40:48;6.37;;;4.30;;
6983;SDS011;3532;51.118;7.210;2023-05-29T00:43:14;5.30;;;3.80;;
6983;SDS011;3532;51.118;7.210;2023-05-29T00:45:39;6.80;;;5.00;;
6983;SDS011;3532;51.118;7.210;2023-05-29T00:48:05;8.63;;;5.20;;
6983;SDS011;3532;51.118;7.210;2023-05-29T00:50:30;5.63;;;3.87;;
6983;SDS011;3532;51.118;7.210;2023-05-29T00:52:57;5.47;;;4.80;;
6983;SDS011;3532;51.118;7.210;2023-05-29T00:55:24;5.10;;;3.80;;
6983;SDS011;3532;51.118;7.210;2023-05-29T00:57:50;7.87;;;4.17;;
6983;SDS011;3532;51.118;7.210;2023-05-29T01:00:15;5.73;;;4.00;;
6983;SDS011;3532;51.118;7.210;2023-05-29T01:02:41;4.70;;;3.70;;
6983;SDS011;3532;51.118;7.210;2023-05-29T01:05:10;6.00;;;3.80;;
6983;SDS011;3532;51.118;7.210;2023-05-29T01:07:36;7.83;;;4.00;;
6983;SDS011;3532;51.118;7.210;2023-05-29T01:10:02;5.53;;;4.60;;
6983;SDS011;3532;51.118;7.210;2023-05-29T01:18:06;6.83;;;4.40;;
6983;SDS011;3532;51.118;7.210;2023-05-29T01:23:23;4.63;;;4.17;;
6983;SDS011;3532;51.118;7.210;2023-05-29T01:28:37;7.30;;;4.27;;
6983;SDS011;3532;51.118;7.210;2023-05-29T01:31:06;9.53;;;4.73;;
6983;SDS011;3532;51.118;7.210;2023-05-29T01:33:32;5.23;;;4.20;;
6983;SDS011;3532;51.118;7.210;2023-05-29T01:35:57;7.67;;;4.40;;
6983;SDS011;3532;51.118;7.210;2023-05-29T01:38:23;6.20;;;4.57;;
6983;SDS011;3532;51.118;7.210;2023-05-29T01:40:48;7.13;;;5.23;;
6983;SDS011;3532;51.118;7.210;2023-05-29T01:43:14;5.83;;;4.60;;
6983;SDS011;3532;51.118;7.210;2023-05-29T01:45:39;6.60;;;5.17;;
6983;SDS011;3532;51.118;7.210;2023-05-29T01:48:05;10.00;;;4.80;;
6983;SDS011;3532;51.118;7.210;2023-05-29T01:50:31;6.07;;;4.80;;
6983;SDS011;3532;51.118;7.210;2023-05-29T01:52:56;7.83;;;4.77;;
6983;SDS011;3532;51.118;7.210;2023-05-29T01:55:22;10.63;;;5.10;;
6983;SDS011;3532;51.118;7.210;2023-05-29T01:57:47;14.30;;;5.30;;
6983;SDS011;3532;51.118;7.210;2023-05-29T02:00:14;8.23;;;4.70;;
6983;SDS011;3532;51.118;7.210;2023-05-29T02:02:41;6.53;;;4.83;;
6983;SDS011;3532;51.118;7.210;2023-05-29T02:05:10;6.50;;;4.47;;
6983;SDS011;3532;51.118;7.210;2023-05-29T02:07:35;6.77;;;4.60;;
6983;SDS011;3532;51.118;7.210;2023-05-29T02:10:04;6.87;;;4.67;;
6983;SDS011;3532;51.118;7.210;2023-05-29T02:12:30;7.37;;;5.00;;
6983;SDS011;3532;51.118;7.210;2023-05-29T02:14:55;8.23;;;4.87;;
6983;SDS011;3532;51.118;7.210;2023-05-29T02:17:21;7.93;;;5.47;;
6983;SDS011;3532;51.118;7.210;2023-05-29T02:19:47;9.40;;;5.17;;
6983;SDS011;3532;51.118;7.210;2023-05-29T02:22:12;10.27;;;5.40;;
6983;SDS011;3532;51.118;7.210;2023-05-29T02:24:37;9.47;;;4.97;;
6983;SDS011;3532;51.118;7.210;2023-05-29T02:27:03;15.67;;;4.93;;
6983;SDS011;3532;51.118;7.210;2023-05-29T02:29:28;8.47;;;4.20;;
6983;SDS011;3532;51.118;7.210;2023-05-29T02:31:54;7.00;;;4.77;;
6983;SDS011;3532;51.118;7.210;2023-05-29T02:34:19;8.90;;;4.90;;
6983;SDS011;3532;51.118;7.210;2023-05-29T02:36:47;11.57;;;5.27;;
6983;SDS011;3532;51.118;7.210;2023-05-29T02:39:13;11.67;;;5.20;;
6983;SDS011;3532;51.118;7.210;2023-05-29T02:41:38;8.17;;;5.30;;
6983;SDS011;3532;51.118;7.210;2023-05-29T02:44:03;9.00;;;4.70;;
6983;SDS011;3532;51.118;7.210;2023-05-29T02:46:29;9.63;;;4.87;;
6983;SDS011;3532;51.118;7.210;2023-05-29T02:48:54;8.37;;;5.27;;
6983;SDS011;3532;51.118;7.210;2023-05-29T02:51:20;11.87;;;5.20;;
6983;SDS011;3532;51.118;7.210;2023-05-29T02:53:45;7.50;;;4.77;;
6983;SDS011;3532;51.118;7.210;2023-05-29T02:56:10;12.83;;;5.67;;
6983;SDS011;3532;51.118;7.210;2023-05-29T02:58:37;6.27;;;4.90;;
6983;SDS011;3532;51.118;7.210;2023-05-29T03:01:02;12.23;;;5.60;;
6983;SDS011;3532;51.118;7.210;2023-05-29T03:03:28;9.33;;;5.70;;
6983;SDS011;3532;51.118;7.210;2023-05-29T03:05:54;10.97;;;5.50;;
6983;SDS011;3532;51.118;7.210;2023-05-29T03:08:20;8.30;;;6.03;;
6983;SDS011;3532;51.118;7.210;2023-05-29T03:10:45;13.40;;;6.57;;
6983;SDS011;3532;51.118;7.210;2023-05-29T03:13:12;14.50;;;6.17;;
6983;SDS011;3532;51.118;7.210;2023-05-29T03:15:37;10.73;;;5.97;;
6983;SDS011;3532;51.118;7.210;2023-05-29T03:18:02;13.13;;;5.80;;
6983;SDS011;3532;51.118;7.210;2023-05-29T03:20:28;12.57;;;6.47;;
6983;SDS011;3532;51.118;7.210;2023-05-29T03:22:53;17.77;;;6.37;;
6983;SDS011;3532;51.118;7.210;2023-05-29T03:25:19;13.07;;;5.90;;
6983;SDS011;3532;51.118;7.210;2023-05-29T03:27:45;13.93;;;6.33;;
6983;SDS011;3532;51.118;7.210;2023-05-29T03:30:11;16.33;;;7.60;;
6983;SDS011;3532;51.118;7.210;2023-05-29T03:32:36;11.53;;;6.57;;
6983;SDS011;3532;51.118;7.210;2023-05-29T03:35:01;12.50;;;6.63;;
6983;SDS011;3532;51.118;7.210;2023-05-29T03:37:28;14.53;;;6.33;;
6983;SDS011;3532;51.118;7.210;2023-05-29T03:39:54;10.30;;;6.53;;
6983;SDS011;3532;51.118;7.210;2023-05-29T03:42:19;13.87;;;6.83;;
6983;SDS011;3532;51.118;7.210;2023-05-29T03:44:45;14.03;;;6.23;;
6983;SDS011;3532;51.118;7.210;2023-05-29T03:47:10;13.47;;;7.60;;
6983;SDS011;3532;51.118;7.210;2023-05-29T03:49:35;12.97;;;7.70;;
6983;SDS011;3532;51.118;7.210;2023-05-29T03:52:01;16.80;;;8.07;;
6983;SDS011;3532;51.118;7.210;2023-05-29T03:54:26;10.70;;;6.57;;
6983;SDS011;3532;51.118;7.210;2023-05-29T03:56:51;9.37;;;7.10;;
6983;SDS011;3532;51.118;7.210;2023-05-29T03:59:17;14.80;;;6.97;;
6983;SDS011;3532;51.118;7.210;2023-05-29T04:01:42;11.93;;;6.77;;
6983;SDS011;3532;51.118;7.210;2023-05-29T04:04:07;14.63;;;7.83;;
6983;SDS011;3532;51.118;7.210;2023-05-29T04:06:33;10.23;;;7.83;;
6983;SDS011;3532;51.118;7.210;2023-05-29T04:08:58;14.83;;;7.60;;
6983;SDS011;3532;51.118;7.210;2023-05-29T04:11:24;14.53;;;7.70;;
6983;SDS011;3532;51.118;7.210;2023-05-29T04:13:49;16.53;;;8.57;;
6983;SDS011;3532;51.118;7.210;2023-05-29T04:16:14;15.10;;;7.17;;
6983;SDS011;3532;51.118;7.210;2023-05-29T04:18:40;15.60;;;7.80;;
6983;SDS011;3532;51.118;7.210;2023-05-29T04:21:06;17.73;;;8.47;;
6983;SDS011;3532;51.118;7.210;2023-05-29T04:23:31;18.30;;;8.93;;
6983;SDS011;3532;51.118;7.210;2023-05-29T04:25:56;15.37;;;7.97;;
6983;SDS011;3532;51.118;7.210;2023-05-29T04:28:22;14.07;;;7.83;;
6983;SDS011;3532;51.118;7.210;2023-05-29T04:30:48;12.37;;;7.30;;
6983;SDS011;3532;51.118;7.210;2023-05-29T04:33:13;11.00;;;7.53;;
6983;SDS011;3532;51.118;7.210;2023-05-29T04:35:40;16.27;;;7.73;;
6983;SDS011;3532;51.118;7.210;2023-05-29T04:38:08;11.90;;;7.00;;
6983;SDS011;3532;51.118;7.210;2023-05-29T04:40:34;19.13;;;8.47;;
6983;SDS011;3532;51.118;7.210;2023-05-29T04:43:01;10.10;;;7.23;;
6983;SDS011;3532;51.118;7.210;2023-05-29T04:45:27;11.40;;;7.60;;
6983;SDS011;3532;51.118;7.210;2023-05-29T04:47:52;12.50;;;6.67;;
6983;SDS011;3532;51.118;7.210;2023-05-29T04:50:20;13.13;;;7.43;;
6983;SDS011;3532;51.118;7.210;2023-05-29T04:52:45;13.90;;;7.93;;
6983;SDS011;3532;51.118;7.210;2023-05-29T04:55:11;13.90;;;6.07;;
6983;SDS011;3532;51.118;7.210;2023-05-29T04:57:36;12.93;;;6.17;;
6983;SDS011;3532;51.118;7.210;2023-05-29T05:00:02;10.57;;;6.20;;
6983;SDS011;3532;51.118;7.210;2023-05-29T05:02:31;16.90;;;6.37;;
6983;SDS011;3532;51.118;7.210;2023-05-29T05:04:57;12.03;;;5.60;;
6983;SDS011;3532;51.118;7.210;2023-05-29T05:07:22;17.03;;;6.27;;
6983;SDS011;3532;51.118;7.210;2023-05-29T05:09:47;12.10;;;5.47;;
6983;SDS011;3532;51.118;7.210;2023-05-29T05:12:13;11.73;;;5.80;;
6983;SDS011;3532;51.118;7.210;2023-05-29T05:14:38;13.50;;;5.67;;
6983;SDS011;3532;51.118;7.210;2023-05-29T05:17:03;14.13;;;5.37;;
6983;SDS011;3532;51.118;7.210;2023-05-29T05:19:29;8.87;;;5.43;;
6983;SDS011;3532;51.118;7.210;2023-05-29T05:21:54;10.53;;;5.40;;
6983;SDS011;3532;51.118;7.210;2023-05-29T05:24:19;14.23;;;5.30;;
6983;SDS011;3532;51.118;7.210;2023-05-29T05:26:45;10.60;;;5.33;;
6983;SDS011;3532;51.118;7.210;2023-05-29T05:29:10;11.77;;;5.50;;
6983;SDS011;3532;51.118;7.210;2023-05-29T05:31:35;14.90;;;5.23;;
6983;SDS011;3532;51.118;7.210;2023-05-29T05:34:01;8.13;;;4.87;;
6983;SDS011;3532;51.118;7.210;2023-05-29T05:36:26;11.27;;;5.33;;
6983;SDS011;3532;51.118;7.210;2023-05-29T05:38:51;12.90;;;5.70;;
6983;SDS011;3532;51.118;7.210;2023-05-29T05:41:17;12.63;;;5.47;;
6983;SDS011;3532;51.118;7.210;2023-05-29T05:43:42;9.43;;;5.40;;
6983;SDS011;3532;51.118;7.210;2023-05-29T05:46:07;10.93;;;5.67;;
6983;SDS011;3532;51.118;7.210;2023-05-29T05:48:33;10.57;;;4.73;;
6983;SDS011;3532;51.118;7.210;2023-05-29T05:50:58;12.03;;;5.30;;
6983;SDS011;3532;51.118;7.210;2023-05-29T05:53:23;10.27;;;4.77;;
6983;SDS011;3532;51.118;7.210;2023-05-29T05:55:49;12.90;;;5.03;;
6983;SDS011;3532;51.118;7.210;2023-05-29T05:58:14;10.53;;;5.00;;
6983;SDS011;3532;51.118;7.210;2023-05-29T06:00:40;15.43;;;5.00;;
6983;SDS011;3532;51.118;7.210;2023-05-29T06:03:05;8.90;;;4.50;;
6983;SDS011;3532;51.118;7.210;2023-05-29T06:05:30;9.70;;;4.90;;
6983;SDS011;3532;51.118;7.210;2023-05-29T06:07:56;9.07;;;5.27;;
6983;SDS011;3532;51.118;7.210;2023-05-29T06:10:21;16.90;;;5.67;;
6983;SDS011;3532;51.118;7.210;2023-05-29T06:12:47;10.07;;;5.43;;
6983;SDS011;3532;51.118;7.210;2023-05-29T06:15:12;8.90;;;5.10;;
6983;SDS011;3532;51.118;7.210;2023-05-29T06:17:37;11.20;;;5.30;;
6983;SDS011;3532;51.118;7.210;2023-05-29T06:20:03;11.37;;;5.10;;
6983;SDS011;3532;51.118;7.210;2023-05-29T06:22:34;9.90;;;5.47;;
6983;SDS011;3532;51.118;7.210;2023-05-29T06:24:59;11.30;;;5.60;;
6983;SDS011;3532;51.118;7.210;2023-05-29T06:27:25;10.37;;;4.87;;
6983;SDS011;3532;51.118;7.210;2023-05-29T06:29:50;9.67;;;4.50;;
6983;SDS011;3532;51.118;7.210;2023-05-29T06:32:16;12.83;;;5.03;;
6983;SDS011;3532;51.118;7.210;2023-05-29T06:34:41;7.03;;;4.40;;
6983;SDS011;3532;51.118;7.210;2023-05-29T06:37:06;14.17;;;4.67;;
6983;SDS011;3532;51.118;7.210;2023-05-29T06:39:32;12.67;;;4.90;;
6983;SDS011;3532;51.118;7.210;2023-05-29T06:41:57;12.63;;;4.97;;
6983;SDS011;3532;51.118;7.210;2023-05-29T06:44:22;7.97;;;4.97;;
6983;SDS011;3532;51.118;7.210;2023-05-29T06:46:48;9.10;;;5.10;;
6983;SDS011;3532;51.118;7.210;2023-05-29T06:49:13;10.00;;;4.60;;
6983;SDS011;3532;51.118;7.210;2023-05-29T06:51:38;9.83;;;4.90;;
6983;SDS011;3532;51.118;7.210;2023-05-29T06:54:04;10.03;;;5.07;;
6983;SDS011;3532;51.118;7.210;2023-05-29T06:56:29;14.00;;;5.83;;
6983;SDS011;3532;51.118;7.210;2023-05-29T06:58:55;12.43;;;5.30;;
6983;SDS011;3532;51.118;7.210;2023-05-29T07:01:20;9.70;;;5.27;;
6983;SDS011;3532;51.118;7.210;2023-05-29T07:03:46;11.53;;;5.10;;
6983;SDS011;3532;51.118;7.210;2023-05-29T07:06:11;10.37;;;5.00;;
6983;SDS011;3532;51.118;7.210;2023-05-29T07:08:37;12.30;;;4.90;;
6983;SDS011;3532;51.118;7.210;2023-05-29T07:11:02;11.57;;;5.30;;
6983;SDS011;3532;51.118;7.210;2023-05-29T07:13:27;9.70;;;4.73;;
6983;SDS011;3532;51.118;7.210;2023-05-29T07:15:53;9.03;;;5.03;;
6983;SDS011;3532;51.118;7.210;2023-05-29T07:18:18;8.90;;;4.60;;
6983;SDS011;3532;51.118;7.210;2023-05-29T07:20:43;11.87;;;5.40;;
6983;SDS011;3532;51.118;7.210;2023-05-29T07:23:09;8.33;;;4.90;;
6983;SDS011;3532;51.118;7.210;2023-05-29T07:25:34;12.27;;;5.40;;
6983;SDS011;3532;51.118;7.210;2023-05-29T07:27:59;10.23;;;4.80;;
6983;SDS011;3532;51.118;7.210;2023-05-29T07:30:25;8.30;;;4.23;;
6983;SDS011;3532;51.118;7.210;2023-05-29T07:32:50;12.23;;;4.93;;
6983;SDS011;3532;51.118;7.210;2023-05-29T07:35:15;10.70;;;4.60;;
6983;SDS011;3532;51.118;7.210;2023-05-29T07:37:41;11.33;;;4.87;;
6983;SDS011;3532;51.118;7.210;2023-05-29T07:40:06;11.10;;;4.20;;
6983;SDS011;3532;51.118;7.210;2023-05-29T07:42:32;8.57;;;4.17;;
6983;SDS011;3532;51.118;7.210;2023-05-29T07:44:58;11.70;;;4.60;;
6983;SDS011;3532;51.118;7.210;2023-05-29T07:47:23;13.43;;;4.90;;
6983;SDS011;3532;51.118;7.210;2023-05-29T07:49:49;7.30;;;4.63;;
6983;SDS011;3532;51.118;7.210;2023-05-29T07:52:15;9.40;;;4.43;;
6983;SDS011;3532;51.118;7.210;2023-05-29T07:54:40;8.70;;;4.17;;
6983;SDS011;3532;51.118;7.210;2023-05-29T07:57:05;12.20;;;4.87;;
6983;SDS011;3532;51.118;7.210;2023-05-29T07:59:37;10.77;;;4.60;;
6983;SDS011;3532;51.118;7.210;2023-05-29T08:02:03;8.57;;;4.30;;
6983;SDS011;3532;51.118;7.210;2023-05-29T08:04:29;7.00;;;4.40;;
6983;SDS011;3532;51.118;7.210;2023-05-29T08:06:54;11.27;;;4.53;;
6983;SDS011;3532;51.118;7.210;2023-05-29T08:09:20;8.70;;;4.43;;
6983;SDS011;3532;51.118;7.210;2023-05-29T08:11:46;9.43;;;4.27;;
6983;SDS011;3532;51.118;7.210;2023-05-29T08:14:12;11.80;;;4.90;;
6983;SDS011;3532;51.118;7.210;2023-05-29T08:16:38;9.00;;;4.37;;
6983;SDS011;3532;51.118;7.210;2023-05-29T08:19:03;8.50;;;4.67;;
6983;SDS011;3532;51.118;7.210;2023-05-29T08:21:29;9.07;;;4.80;;
6983;SDS011;3532;51.118;7.210;2023-05-29T08:23:55;9.00;;;4.30;;
6983;SDS011;3532;51.118;7.210;2023-05-29T08:26:20;8.83;;;4.93;;
6983;SDS011;3532;51.118;7.210;2023-05-29T08:28:46;7.53;;;4.23;;
6983;SDS011;3532;51.118;7.210;2023-05-29T08:31:11;6.97;;;4.30;;
6983;SDS011;3532;51.118;7.210;2023-05-29T08:33:37;8.43;;;4.37;;
6983;SDS011;3532;51.118;7.210;2023-05-29T08:36:02;10.00;;;4.60;;
6983;SDS011;3532;51.118;7.210;2023-05-29T08:38:28;9.90;;;4.70;;
6983;SDS011;3532;51.118;7.210;2023-05-29T08:40:54;10.63;;;5.10;;
6983;SDS011;3532;51.118;7.210;2023-05-29T08:43:21;10.40;;;5.10;;
6983;SDS011;3532;51.118;7.210;2023-05-29T08:45:47;10.93;;;4.47;;
6983;SDS011;3532;51.118;7.210;2023-05-29T08:48:13;8.67;;;5.23;;
6983;SDS011;3532;51.118;7.210;2023-05-29T08:50:42;8.90;;;5.07;;
6983;SDS011;3532;51.118;7.210;2023-05-29T08:53:09;9.00;;;4.40;;
6983;SDS011;3532;51.118;7.210;2023-05-29T08:55:35;8.53;;;4.40;;
6983;SDS011;3532;51.118;7.210;2023-05-29T08:58:01;8.17;;;5.67;;
6983;SDS011;3532;51.118;7.210;2023-05-29T09:00:26;7.57;;;4.40;;
6983;SDS011;3532;51.118;7.210;2023-05-29T09:02:54;9.90;;;5.23;;
6983;SDS011;3532;51.118;7.210;2023-05-29T09:05:20;10.63;;;4.40;;
6983;SDS011;3532;51.118;7.210;2023-05-29T09:07:46;11.10;;;4.80;;
6983;SDS011;3532;51.118;7.210;2023-05-29T09:10:14;8.73;;;4.43;;
6983;SDS011;3532;51.118;7.210;2023-05-29T09:12:40;9.47;;;4.27;;
6983;SDS011;3532;51.118;7.210;2023-05-29T09:15:26;10.57;;;4.67;;
6983;SDS011;3532;51.118;7.210;2023-05-29T09:17:55;9.17;;;4.77;;
6983;SDS011;3532;51.118;7.210;2023-05-29T09:20:22;11.77;;;4.73;;
6983;SDS011;3532;51.118;7.210;2023-05-29T09:22:52;10.77;;;4.53;;
6983;SDS011;3532;51.118;7.210;2023-05-29T09:25:18;9.40;;;4.60;;
6983;SDS011;3532;51.118;7.210;2023-05-29T09:27:46;8.67;;;4.77;;
6983;SDS011;3532;51.118;7.210;2023-05-29T09:30:11;11.87;;;4.33;;
6983;SDS011;3532;51.118;7.210;2023-05-29T09:32:56;10.17;;;4.93;;
6983;SDS011;3532;51.118;7.210;2023-05-29T09:35:21;10.33;;;5.33;;
6983;SDS011;3532;51.118;7.210;2023-05-29T09:37:46;10.83;;;4.80;;
6983;SDS011;3532;51.118;7.210;2023-05-29T09:40:12;6.23;;;3.90;;
6983;SDS011;3532;51.118;7.210;2023-05-29T09:42:37;13.17;;;4.67;;
6983;SDS011;3532;51.118;7.210;2023-05-29T09:45:03;8.03;;;4.47;;
6983;SDS011;3532;51.118;7.210;2023-05-29T09:47:29;8.77;;;4.67;;
6983;SDS011;3532;51.118;7.210;2023-05-29T09:49:58;10.43;;;4.73;;
6983;SDS011;3532;51.118;7.210;2023-05-29T09:52:25;7.57;;;4.43;;
6983;SDS011;3532;51.118;7.210;2023-05-29T09:54:51;10.33;;;4.50;;
6983;SDS011;3532;51.118;7.210;2023-05-29T09:57:17;8.10;;;4.20;;
6983;SDS011;3532;51.118;7.210;2023-05-29T09:59:43;12.80;;;5.27;;
6983;SDS011;3532;51.118;7.210;2023-05-29T10:02:10;13.37;;;5.70;;
6983;SDS011;3532;51.118;7.210;2023-05-29T10:04:38;8.53;;;4.57;;
6983;SDS011;3532;51.118;7.210;2023-05-29T10:07:07;9.23;;;5.20;;
6983;SDS011;3532;51.118;7.210;2023-05-29T10:09:35;8.00;;;4.90;;
6983;SDS011;3532;51.118;7.210;2023-05-29T10:12:08;15.67;;;5.83;;
6983;SDS011;3532;51.118;7.210;2023-05-29T10:14:36;8.50;;;4.10;;
6983;SDS011;3532;51.118;7.210;2023-05-29T10:17:02;12.57;;;5.17;;
6983;SDS011;3532;51.118;7.210;2023-05-29T10:19:31;9.63;;;4.80;;
6983;SDS011;3532;51.118;7.210;2023-05-29T10:21:57;9.10;;;4.47;;
6983;SDS011;3532;51.118;7.210;2023-05-29T10:24:26;9.17;;;4.80;;
6983;SDS011;3532;51.118;7.210;2023-05-29T10:26:52;8.80;;;5.23;;
6983;SDS011;3532;51.118;7.210;2023-05-29T10:40:24;12.37;;;4.73;;
6983;SDS011;3532;51.118;7.210;2023-05-29T10:42:51;8.03;;;4.97;;
6983;SDS011;3532;51.118;7.210;2023-05-29T10:47:54;13.57;;;5.33;;
6983;SDS011;3532;51.118;7.210;2023-05-29T10:50:39;12.03;;;5.10;;
6983;SDS011;3532;51.118;7.210;2023-05-29T10:53:06;10.83;;;5.47;;
6983;SDS011;3532;51.118;7.210;2023-05-29T10:55:39;10.77;;;5.27;;
6983;SDS011;3532;51.118;7.210;2023-05-29T10:58:05;12.80;;;4.67;;
6983;SDS011;3532;51.118;7.210;2023-05-29T11:00:33;10.17;;;4.80;;
6983;SDS011;3532;51.118;7.210;2023-05-29T11:03:03;8.33;;;4.73;;
6983;SDS011;3532;51.118;7.210;2023-05-29T11:05:28;11.03;;;5.03;;
6983;SDS011;3532;51.118;7.210;2023-05-29T11:07:57;10.23;;;5.17;;
6983;SDS011;3532;51.118;7.210;2023-05-29T11:10:58;11.77;;;5.13;;
6983;SDS011;3532;51.118;7.210;2023-05-29T11:13:22;8.60;;;4.57;;
6983;SDS011;3532;51.118;7.210;2023-05-29T11:16:03;11.17;;;4.43;;
6983;SDS011;3532;51.118;7.210;2023-05-29T11:18:47;9.30;;;5.20;;
6983;SDS011;3532;51.118;7.210;2023-05-29T11:23:57;10.73;;;5.00;;
6983;SDS011;3532;51.118;7.210;2023-05-29T11:26:27;9.57;;;4.77;;
6983;SDS011;3532;51.118;7.210;2023-05-29T11:28:53;8.93;;;4.53;;
6983;SDS011;3532;51.118;7.210;2023-05-29T11:31:19;8.37;;;4.23;;
6983;SDS011;3532;51.118;7.210;2023-05-29T11:33:49;9.63;;;5.17;;
6983;SDS011;3532;51.118;7.210;2023-05-29T11:36:16;9.70;;;5.13;;
6983;SDS011;3532;51.118;7.210;2023-05-29T11:38:43;8.83;;;4.73;;
6983;SDS011;3532;51.118;7.210;2023-05-29T11:41:08;9.37;;;5.00;;
6983;SDS011;3532;51.118;7.210;2023-05-29T11:43:34;10.00;;;4.43;;
6983;SDS011;3532;51.118;7.210;2023-05-29T11:46:00;11.27;;;4.80;;
6983;SDS011;3532;51.118;7.210;2023-05-29T11:48:25;9.63;;;4.57;;
6983;SDS011;3532;51.118;7.210;2023-05-29T11:50:50;8.47;;;5.50;;
6983;SDS011;3532;51.118;7.210;2023-05-29T11:53:16;11.03;;;4.67;;
6983;SDS011;3532;51.118;7.210;2023-05-29T11:55:41;9.07;;;5.27;;
6983;SDS011;3532;51.118;7.210;2023-05-29T11:58:06;8.60;;;4.67;;
6983;SDS011;3532;51.118;7.210;2023-05-29T12:00:35;11.67;;;4.97;;
6983;SDS011;3532;51.118;7.210;2023-05-29T12:03:02;8.80;;;4.73;;
6983;SDS011;3532;51.118;7.210;2023-05-29T12:05:32;9.60;;;4.53;;
6983;SDS011;3532;51.118;7.210;2023-05-29T12:08:08;9.33;;;4.30;;
6983;SDS011;3532;51.118;7.210;2023-05-29T12:10:34;9.13;;;4.50;;
6983;SDS011;3532;51.118;7.210;2023-05-29T12:13:00;10.80;;;5.30;;
6983;SDS011;3532;51.118;7.210;2023-05-29T12:15:28;7.57;;;4.83;;
6983;SDS011;3532;51.118;7.210;2023-05-29T12:17:53;14.47;;;5.20;;
6983;SDS011;3532;51.118;7.210;2023-05-29T12:20:23;9.90;;;4.57;;
6983;SDS011;3532;51.118;7.210;2023-05-29T12:22:51;8.27;;;4.10;;
6983;SDS011;3532;51.118;7.210;2023-05-29T12:25:17;8.63;;;4.40;;
6983;SDS011;3532;51.118;7.210;2023-05-29T12:27:45;10.97;;;5.33;;
6983;SDS011;3532;51.118;7.210;2023-05-29T12:30:21;10.67;;;4.63;;
6983;SDS011;3532;51.118;7.210;2023-05-29T12:32:48;7.97;;;4.33;;
6983;SDS011;3532;51.118;7.210;2023-05-29T12:35:21;5.50;;;3.83;;
6983;SDS011;3532;51.118;7.210;2023-05-29T12:37:56;9.00;;;4.37;;
6983;SDS011;3532;51.118;7.210;2023-05-29T12:40:23;11.33;;;4.80;;
6983;SDS011;3532;51.118;7.210;2023-05-29T12:42:54;10.93;;;4.57;;
6983;SDS011;3532;51.118;7.210;2023-05-29T12:45:27;11.40;;;4.40;;
6983;SDS011;3532;51.118;7.210;2023-05-29T12:47:58;9.77;;;5.07;;
6983;SDS011;3532;51.118;7.210;2023-05-29T12:50:27;8.40;;;4.00;;
6983;SDS011;3532;51.118;7.210;2023-05-29T12:52:56;8.77;;;4.90;;
6983;SDS011;3532;51.118;7.210;2023-05-29T12:55:23;11.60;;;4.47;;
6983;SDS011;3532;51.118;7.210;2023-05-29T12:57:49;7.43;;;4.27;;
6983;SDS011;3532;51.118;7.210;2023-05-29T13:00:15;8.63;;;4.60;;
6983;SDS011;3532;51.118;7.210;2023-05-29T13:02:41;12.73;;;5.23;;
6983;SDS011;3532;51.118;7.210;2023-05-29T13:05:06;7.70;;;3.93;;
6983;SDS011;3532;51.118;7.210;2023-05-29T13:07:32;8.70;;;4.27;;
6983;SDS011;3532;51.118;7.210;2023-05-29T13:09:58;8.97;;;4.73;;
6983;SDS011;3532;51.118;7.210;2023-05-29T13:12:24;7.33;;;4.17;;
6983;SDS011;3532;51.118;7.210;2023-05-29T13:14:49;10.97;;;5.13;;
6983;SDS011;3532;51.118;7.210;2023-05-29T13:17:15;6.27;;;3.80;;
6983;SDS011;3532;51.118;7.210;2023-05-29T13:19:40;8.90;;;4.47;;
6983;SDS011;3532;51.118;7.210;2023-05-29T13:22:05;5.97;;;4.10;;
6983;SDS011;3532;51.118;7.210;2023-05-29T13:24:31;6.53;;;3.77;;
6983;SDS011;3532;51.118;7.210;2023-05-29T13:26:57;11.03;;;4.30;;
6983;SDS011;3532;51.118;7.210;2023-05-29T13:29:22;8.33;;;4.10;;
6983;SDS011;3532;51.118;7.210;2023-05-29T13:31:47;6.63;;;4.03;;
6983;SDS011;3532;51.118;7.210;2023-05-29T13:34:12;11.10;;;5.00;;
6983;SDS011;3532;51.118;7.210;2023-05-29T13:36:38;6.30;;;4.23;;
6983;SDS011;3532;51.118;7.210;2023-05-29T13:39:03;7.40;;;4.43;;
6983;SDS011;3532;51.118;7.210;2023-05-29T13:41:29;8.53;;;4.20;;
6983;SDS011;3532;51.118;7.210;2023-05-29T13:43:55;4.87;;;3.50;;
6983;SDS011;3532;51.118;7.210;2023-05-29T13:46:21;7.03;;;4.80;;
6983;SDS011;3532;51.118;7.210;2023-05-29T13:48:46;7.53;;;4.13;;
6983;SDS011;3532;51.118;7.210;2023-05-29T13:51:12;9.63;;;4.70;;
6983;SDS011;3532;51.118;7.210;2023-05-29T13:53:37;5.50;;;4.30;;
6983;SDS011;3532;51.118;7.210;2023-05-29T13:56:02;8.67;;;4.10;;
6983;SDS011;3532;51.118;7.210;2023-05-29T13:58:28;6.83;;;3.63;;
6983;SDS011;3532;51.118;7.210;2023-05-29T14:00:53;10.47;;;4.67;;
6983;SDS011;3532;51.118;7.210;2023-05-29T14:03:19;8.93;;;4.33;;
6983;SDS011;3532;51.118;7.210;2023-05-29T14:05:46;9.40;;;4.97;;
6983;SDS011;3532;51.118;7.210;2023-05-29T14:08:11;6.00;;;4.03;;
6983;SDS011;3532;51.118;7.210;2023-05-29T14:10:37;8.20;;;4.30;;
6983;SDS011;3532;51.118;7.210;2023-05-29T14:13:02;13.03;;;4.60;;
6983;SDS011;3532;51.118;7.210;2023-05-29T14:15:27;6.13;;;3.67;;
6983;SDS011;3532;51.118;7.210;2023-05-29T14:17:52;8.10;;;4.47;;
6983;SDS011;3532;51.118;7.210;2023-05-29T14:20:18;9.00;;;3.77;;
6983;SDS011;3532;51.118;7.210;2023-05-29T14:22:43;5.67;;;3.90;;
6983;SDS011;3532;51.118;7.210;2023-05-29T14:25:08;7.33;;;3.60;;
6983;SDS011;3532;51.118;7.210;2023-05-29T14:27:34;9.17;;;3.87;;
6983;SDS011;3532;51.118;7.210;2023-05-29T14:29:59;9.43;;;4.10;;
6983;SDS011;3532;51.118;7.210;2023-05-29T14:32:25;7.87;;;4.20;;
6983;SDS011;3532;51.118;7.210;2023-05-29T14:34:50;9.13;;;4.30;;
6983;SDS011;3532;51.118;7.210;2023-05-29T14:37:17;8.57;;;4.10;;
6983;SDS011;3532;51.118;7.210;2023-05-29T14:39:42;6.90;;;3.77;;
6983;SDS011;3532;51.118;7.210;2023-05-29T14:42:07;9.73;;;4.03;;
6983;SDS011;3532;51.118;7.210;2023-05-29T14:44:33;6.47;;;4.23;;
6983;SDS011;3532;51.118;7.210;2023-05-29T14:46:58;6.77;;;4.53;;
6983;SDS011;3532;51.118;7.210;2023-05-29T14:49:24;7.83;;;4.40;;
6983;SDS011;3532;51.118;7.210;2023-05-29T14:51:50;12.13;;;4.53;;
6983;SDS011;3532;51.118;7.210;2023-05-29T14:54:16;8.60;;;4.37;;
6983;SDS011;3532;51.118;7.210;2023-05-29T14:56:41;7.27;;;4.23;;
6983;SDS011;3532;51.118;7.210;2023-05-29T14:59:06;9.33;;;4.77;;
6983;SDS011;3532;51.118;7.210;2023-05-29T15:01:31;10.80;;;4.17;;
6983;SDS011;3532;51.118;7.210;2023-05-29T15:03:57;8.20;;;4.23;;
6983;SDS011;3532;51.118;7.210;2023-05-29T15:06:22;7.47;;;4.03;;
6983;SDS011;3532;51.118;7.210;2023-05-29T15:08:48;7.00;;;4.20;;
6983;SDS011;3532;51.118;7.210;2023-05-29T15:11:15;8.80;;;4.33;;
6983;SDS011;3532;51.118;7.210;2023-05-29T15:13:42;7.17;;;4.07;;
6983;SDS011;3532;51.118;7.210;2023-05-29T15:16:07;6.93;;;3.97;;
6983;SDS011;3532;51.118;7.210;2023-05-29T15:18:33;9.77;;;4.13;;
6983;SDS011;3532;51.118;7.210;2023-05-29T15:20:58;6.40;;;4.20;;
6983;SDS011;3532;51.118;7.210;2023-05-29T15:23:24;10.43;;;4.27;;
6983;SDS011;3532;51.118;7.210;2023-05-29T15:25:50;7.07;;;4.23;;
6983;SDS011;3532;51.118;7.210;2023-05-29T15:28:15;8.10;;;4.67;;
6983;SDS011;3532;51.118;7.210;2023-05-29T15:30:41;5.53;;;3.90;;
6983;SDS011;3532;51.118;7.210;2023-05-29T15:33:06;6.70;;;3.93;;